sensor_id;sensor_type;location;lat;lon;timestamp;pressure;altitude;pressure_sealevel;temperature;humidity
37202;BME280;37799;52.390;6.136;2022-08-20T00:01:00;101502.00;;;18.72;100.00
37202;BME280;37799;52.390;6.136;2022-08-20T00:03:32;101497.75;;;18.69;100.00
37202;BME280;37799;52.390;6.136;2022-08-20T00:08:30;101486.28;;;18.53;100.00
37202;BME280;37799;52.390;6.136;2022-08-20T00:10:57;101498.47;;;18.54;100.00
37202;BME280;37799;52.390;6.136;2022-08-20T00:13:27;101495.94;;;18.52;100.00
37202;BME280;37799;52.390;6.136;2022-08-20T00:15:53;101498.84;;;18.46;100.00
37202;BME280;37799;52.390;6.136;2022-08-20T00:18:20;101503.03;;;18.50;100.00
37202;BME280;37799;52.390;6.136;2022-08-20T00:20:49;101505.69;;;18.49;100.00
37202;BME280;37799;52.390;6.136;2022-08-20T00:23:16;101507.72;;;18.44;100.00
37202;BME280;37799;52.390;6.136;2022-08-20T00:25:43;101504.47;;;18.39;100.00
37202;BME280;37799;52.390;6.136;2022-08-20T00:28:09;101504.75;;;18.33;100.00
37202;BME280;37799;52.390;6.136;2022-08-20T00:30:36;101503.13;;;18.30;100.00
37202;BME280;37799;52.390;6.136;2022-08-20T00:33:05;101501.34;;;18.31;100.00
37202;BME280;37799;52.390;6.136;2022-08-20T00:35:33;101502.44;;;18.26;100.00
37202;BME280;37799;52.390;6.136;2022-08-20T00:37:59;101497.38;;;18.22;100.00
37202;BME280;37799;52.390;6.136;2022-08-20T00:40:29;101496.53;;;18.21;100.00
37202;BME280;37799;52.390;6.136;2022-08-20T00:42:56;101494.84;;;18.20;100.00
37202;BME280;37799;52.390;6.136;2022-08-20T00:45:24;101491.44;;;18.18;100.00
37202;BME280;37799;52.390;6.136;2022-08-20T00:47:50;101491.03;;;18.27;100.00
37202;BME280;37799;52.390;6.136;2022-08-20T00:50:21;101501.50;;;18.27;100.00
37202;BME280;37799;52.390;6.136;2022-08-20T00:52:49;101498.47;;;18.37;100.00
37202;BME280;37799;52.390;6.136;2022-08-20T00:55:19;101503.91;;;18.32;100.00
37202;BME280;37799;52.390;6.136;2022-08-20T00:57:48;101507.44;;;18.31;100.00
37202;BME280;37799;52.390;6.136;2022-08-20T01:00:25;101505.69;;;18.32;100.00
37202;BME280;37799;52.390;6.136;2022-08-20T01:02:51;101515.16;;;18.34;100.00
37202;BME280;37799;52.390;6.136;2022-08-20T01:05:17;101516.34;;;18.46;100.00
37202;BME280;37799;52.390;6.136;2022-08-20T01:07:43;101520.81;;;18.44;100.00
37202;BME280;37799;52.390;6.136;2022-08-20T01:10:18;101515.72;;;18.41;100.00
37202;BME280;37799;52.390;6.136;2022-08-20T01:12:46;101510.56;;;18.39;100.00
37202;BME280;37799;52.390;6.136;2022-08-20T01:15:15;101516.44;;;18.44;100.00
37202;BME280;37799;52.390;6.136;2022-08-20T01:17:45;101513.09;;;18.41;100.00
37202;BME280;37799;52.390;6.136;2022-08-20T01:20:24;101513.09;;;18.41;100.00
37202;BME280;37799;52.390;6.136;2022-08-20T01:26:10;101519.28;;;18.40;100.00
37202;BME280;37799;52.390;6.136;2022-08-20T01:28:52;101526.16;;;18.42;100.00
37202;BME280;37799;52.390;6.136;2022-08-20T01:31:21;101531.31;;;18.44;100.00
37202;BME280;37799;52.390;6.136;2022-08-20T01:33:48;101532.09;;;18.46;100.00
37202;BME280;37799;52.390;6.136;2022-08-20T01:36:16;101533.00;;;18.45;100.00
37202;BME280;37799;52.390;6.136;2022-08-20T01:38:43;101533.78;;;18.47;100.00
37202;BME280;37799;52.390;6.136;2022-08-20T01:43:55;101534.94;;;18.41;100.00
37202;BME280;37799;52.390;6.136;2022-08-20T01:46:29;101532.53;;;18.37;100.00
37202;BME280;37799;52.390;6.136;2022-08-20T01:48:58;101525.56;;;18.36;100.00
37202;BME280;37799;52.390;6.136;2022-08-20T01:51:28;101529.28;;;18.32;100.00
37202;BME280;37799;52.390;6.136;2022-08-20T01:53:56;101519.78;;;18.29;100.00
37202;BME280;37799;52.390;6.136;2022-08-20T01:56:26;101518.78;;;18.32;100.00
37202;BME280;37799;52.390;6.136;2022-08-20T01:58:54;101527.50;;;18.32;100.00
37202;BME280;37799;52.390;6.136;2022-08-20T02:03:45;101528.50;;;18.30;100.00
37202;BME280;37799;52.390;6.136;2022-08-20T02:06:10;101525.81;;;18.31;100.00
37202;BME280;37799;52.390;6.136;2022-08-20T02:08:36;101524.31;;;18.25;100.00
37202;BME280;37799;52.390;6.136;2022-08-20T02:11:01;101514.78;;;18.24;100.00
37202;BME280;37799;52.390;6.136;2022-08-20T02:13:26;101518.78;;;18.32;100.00
37202;BME280;37799;52.390;6.136;2022-08-20T02:15:52;101519.09;;;18.25;100.00
37202;BME280;37799;52.390;6.136;2022-08-20T02:18:17;101520.09;;;18.23;100.00
37202;BME280;37799;52.390;6.136;2022-08-20T02:20:44;101527.38;;;18.16;100.00
37202;BME280;37799;52.390;6.136;2022-08-20T02:23:10;101522.28;;;18.13;100.00
37202;BME280;37799;52.390;6.136;2022-08-20T02:25:37;101537.00;;;18.16;100.00
37202;BME280;37799;52.390;6.136;2022-08-20T02:28:07;101532.91;;;18.10;100.00
37202;BME280;37799;52.390;6.136;2022-08-20T02:30:36;101532.25;;;18.05;100.00
37202;BME280;37799;52.390;6.136;2022-08-20T02:33:05;101527.38;;;17.97;100.00
37202;BME280;37799;52.390;6.136;2022-08-20T02:35:31;101529.28;;;17.94;100.00
37202;BME280;37799;52.390;6.136;2022-08-20T02:37:56;101524.69;;;17.99;100.00
37202;BME280;37799;52.390;6.136;2022-08-20T02:40:24;101536.34;;;17.92;100.00
37202;BME280;37799;52.390;6.136;2022-08-20T02:42:51;101534.94;;;17.85;100.00
37202;BME280;37799;52.390;6.136;2022-08-20T02:45:16;101545.44;;;17.85;100.00
37202;BME280;37799;52.390;6.136;2022-08-20T02:47:43;101531.53;;;17.83;100.00
37202;BME280;37799;52.390;6.136;2022-08-20T02:50:15;101534.28;;;17.80;100.00
37202;BME280;37799;52.390;6.136;2022-08-20T02:52:42;101542.28;;;17.77;100.00
37202;BME280;37799;52.390;6.136;2022-08-20T02:55:08;101540.75;;;17.73;100.00
37202;BME280;37799;52.390;6.136;2022-08-20T02:57:34;101535.44;;;17.74;100.00
37202;BME280;37799;52.390;6.136;2022-08-20T02:59:59;101537.19;;;17.74;100.00
37202;BME280;37799;52.390;6.136;2022-08-20T03:02:25;101538.03;;;17.74;100.00
37202;BME280;37799;52.390;6.136;2022-08-20T03:04:50;101531.97;;;17.74;100.00
37202;BME280;37799;52.390;6.136;2022-08-20T03:07:16;101531.09;;;17.73;100.00
37202;BME280;37799;52.390;6.136;2022-08-20T03:09:41;101529.19;;;17.77;100.00
37202;BME280;37799;52.390;6.136;2022-08-20T03:12:07;101527.03;;;17.86;100.00
37202;BME280;37799;52.390;6.136;2022-08-20T03:14:33;101522.75;;;17.84;100.00
37202;BME280;37799;52.390;6.136;2022-08-20T03:16:59;101528.19;;;17.79;100.00
37202;BME280;37799;52.390;6.136;2022-08-20T03:19:25;101522.88;;;17.81;100.00
37202;BME280;37799;52.390;6.136;2022-08-20T03:21:51;101534.13;;;17.83;100.00
37202;BME280;37799;52.390;6.136;2022-08-20T03:24:17;101540.19;;;17.85;100.00
37202;BME280;37799;52.390;6.136;2022-08-20T03:26:43;101538.28;;;17.88;100.00
37202;BME280;37799;52.390;6.136;2022-08-20T03:29:08;101543.59;;;17.87;100.00
37202;BME280;37799;52.390;6.136;2022-08-20T03:31:34;101548.09;;;17.83;100.00
37202;BME280;37799;52.390;6.136;2022-08-20T03:33:59;101533.88;;;17.89;100.00
37202;BME280;37799;52.390;6.136;2022-08-20T03:36:27;101539.06;;;17.90;100.00
37202;BME280;37799;52.390;6.136;2022-08-20T03:38:53;101539.06;;;17.90;100.00
37202;BME280;37799;52.390;6.136;2022-08-20T03:41:18;101544.06;;;17.95;100.00
37202;BME280;37799;52.390;6.136;2022-08-20T03:43:44;101535.34;;;17.94;100.00
37202;BME280;37799;52.390;6.136;2022-08-20T03:46:10;101532.13;;;17.89;100.00
37202;BME280;37799;52.390;6.136;2022-08-20T03:48:35;101536.34;;;17.92;100.00
37202;BME280;37799;52.390;6.136;2022-08-20T03:51:01;101542.75;;;18.05;100.00
37202;BME280;37799;52.390;6.136;2022-08-20T03:53:27;101543.88;;;18.00;100.00
37202;BME280;37799;52.390;6.136;2022-08-20T03:55:57;101540.81;;;17.90;100.00
37202;BME280;37799;52.390;6.136;2022-08-20T03:58:26;101550.38;;;17.91;100.00
37202;BME280;37799;52.390;6.136;2022-08-20T04:00:51;101538.97;;;17.92;100.00
37202;BME280;37799;52.390;6.136;2022-08-20T04:03:17;101538.81;;;17.95;100.00
37202;BME280;37799;52.390;6.136;2022-08-20T04:05:43;101547.69;;;17.92;100.00
37202;BME280;37799;52.390;6.136;2022-08-20T04:08:14;101545.91;;;17.93;100.00
37202;BME280;37799;52.390;6.136;2022-08-20T04:10:40;101547.53;;;17.95;100.00
37202;BME280;37799;52.390;6.136;2022-08-20T04:13:07;101550.78;;;17.82;100.00
37202;BME280;37799;52.390;6.136;2022-08-20T04:15:34;101556.31;;;17.76;100.00
37202;BME280;37799;52.390;6.136;2022-08-20T04:18:01;101558.25;;;17.71;100.00
37202;BME280;37799;52.390;6.136;2022-08-20T04:20:30;101557.47;;;17.68;100.00
37202;BME280;37799;52.390;6.136;2022-08-20T04:22:55;101560.22;;;17.65;100.00
37202;BME280;37799;52.390;6.136;2022-08-20T04:25:21;101556.03;;;17.61;100.00
37202;BME280;37799;52.390;6.136;2022-08-20T04:27:47;101558.78;;;17.58;100.00
37202;BME280;37799;52.390;6.136;2022-08-20T04:30:15;101559.81;;;17.54;100.00
37202;BME280;37799;52.390;6.136;2022-08-20T04:32:41;101555.66;;;17.50;100.00
37202;BME280;37799;52.390;6.136;2022-08-20T04:35:10;101564.44;;;17.49;100.00
37202;BME280;37799;52.390;6.136;2022-08-20T04:37:37;101564.44;;;17.49;100.00
37202;BME280;37799;52.390;6.136;2022-08-20T04:40:09;101568.81;;;17.49;100.00
37202;BME280;37799;52.390;6.136;2022-08-20T04:42:53;101569.31;;;17.57;100.00
37202;BME280;37799;52.390;6.136;2022-08-20T04:45:18;101566.59;;;17.60;100.00
37202;BME280;37799;52.390;6.136;2022-08-20T04:47:43;101569.06;;;17.63;100.00
37202;BME280;37799;52.390;6.136;2022-08-20T04:50:10;101571.59;;;17.64;100.00
37202;BME280;37799;52.390;6.136;2022-08-20T04:52:36;101573.38;;;17.64;100.00
37202;BME280;37799;52.390;6.136;2022-08-20T04:55:03;101572.59;;;17.62;100.00
37202;BME280;37799;52.390;6.136;2022-08-20T04:57:28;101574.22;;;17.64;100.00
37202;BME280;37799;52.390;6.136;2022-08-20T04:59:54;101581.84;;;17.71;100.00
37202;BME280;37799;52.390;6.136;2022-08-20T05:02:20;101592.97;;;17.76;100.00
37202;BME280;37799;52.390;6.136;2022-08-20T05:04:45;101600.78;;;17.77;100.00
37202;BME280;37799;52.390;6.136;2022-08-20T05:07:12;101602.53;;;17.77;100.00
37202;BME280;37799;52.390;6.136;2022-08-20T05:09:38;101599.91;;;17.77;100.00
37202;BME280;37799;52.390;6.136;2022-08-20T05:12:04;101609.19;;;17.84;100.00
37202;BME280;37799;52.390;6.136;2022-08-20T05:14:29;101610.50;;;17.94;100.00
37202;BME280;37799;52.390;6.136;2022-08-20T05:16:55;101614.72;;;17.98;100.00
37202;BME280;37799;52.390;6.136;2022-08-20T05:19:22;101609.31;;;18.01;100.00
37202;BME280;37799;52.390;6.136;2022-08-20T05:21:47;101603.00;;;18.05;100.00
37202;BME280;37799;52.390;6.136;2022-08-20T05:24:13;101613.16;;;18.13;100.00
37202;BME280;37799;52.390;6.136;2022-08-20T05:26:38;101609.34;;;18.20;100.00
37202;BME280;37799;52.390;6.136;2022-08-20T05:29:04;101605.31;;;18.32;100.00
37202;BME280;37799;52.390;6.136;2022-08-20T05:31:30;101607.78;;;18.35;100.00
37202;BME280;37799;52.390;6.136;2022-08-20T05:33:57;101607.00;;;18.33;100.00
37202;BME280;37799;52.390;6.136;2022-08-20T05:36:22;101606.06;;;18.34;100.00
37202;BME280;37799;52.390;6.136;2022-08-20T05:38:48;101615.31;;;18.23;100.00
37202;BME280;37799;52.390;6.136;2022-08-20T05:41:13;101613.03;;;18.16;100.00
37202;BME280;37799;52.390;6.136;2022-08-20T05:43:39;101612.31;;;18.12;100.00
37202;BME280;37799;52.390;6.136;2022-08-20T05:46:04;101609.69;;;18.12;100.00
37202;BME280;37799;52.390;6.136;2022-08-20T05:48:30;101624.91;;;18.04;100.00
37202;BME280;37799;52.390;6.136;2022-08-20T05:50:55;101621.44;;;18.04;100.00
37202;BME280;37799;52.390;6.136;2022-08-20T05:53:23;101617.56;;;18.12;100.00
37202;BME280;37799;52.390;6.136;2022-08-20T05:55:49;101621.59;;;18.19;100.00
37202;BME280;37799;52.390;6.136;2022-08-20T05:58:24;101632.59;;;18.27;100.00
37202;BME280;37799;52.390;6.136;2022-08-20T06:00:51;101625.72;;;18.44;100.00
37202;BME280;37799;52.390;6.136;2022-08-20T06:03:17;101625.22;;;18.54;100.00
37202;BME280;37799;52.390;6.136;2022-08-20T06:06:01;101629.16;;;18.65;100.00
37202;BME280;37799;52.390;6.136;2022-08-20T06:08:27;101622.53;;;18.75;100.00
37202;BME280;37799;52.390;6.136;2022-08-20T06:10:53;101629.09;;;18.66;100.00
37202;BME280;37799;52.390;6.136;2022-08-20T06:13:18;101633.25;;;18.51;100.00
37202;BME280;37799;52.390;6.136;2022-08-20T06:15:44;101635.28;;;18.45;100.00
37202;BME280;37799;52.390;6.136;2022-08-20T06:18:09;101631.03;;;18.42;100.00
37202;BME280;37799;52.390;6.136;2022-08-20T06:20:36;101635.44;;;18.42;100.00
37202;BME280;37799;52.390;6.136;2022-08-20T06:23:03;101638.97;;;18.41;100.00
37202;BME280;37799;52.390;6.136;2022-08-20T06:25:29;101638.41;;;18.53;100.00
37202;BME280;37799;52.390;6.136;2022-08-20T06:27:54;101643.81;;;18.50;100.00
37202;BME280;37799;52.390;6.136;2022-08-20T06:30:20;101640.13;;;18.54;100.00
37202;BME280;37799;52.390;6.136;2022-08-20T06:32:45;101645.06;;;18.60;100.00
37202;BME280;37799;52.390;6.136;2022-08-20T06:35:11;101645.09;;;18.79;100.00
37202;BME280;37799;52.390;6.136;2022-08-20T06:37:38;101643.94;;;18.84;100.00
37202;BME280;37799;52.390;6.136;2022-08-20T06:40:24;101644.28;;;18.96;100.00
37202;BME280;37799;52.390;6.136;2022-08-20T06:42:51;101643.84;;;19.05;100.00
37202;BME280;37799;52.390;6.136;2022-08-20T06:45:29;101644.47;;;19.10;100.00
37202;BME280;37799;52.390;6.136;2022-08-20T06:47:58;101644.03;;;19.19;100.00
37202;BME280;37799;52.390;6.136;2022-08-20T06:50:33;101647.91;;;19.29;100.00
37202;BME280;37799;52.390;6.136;2022-08-20T06:53:06;101652.75;;;19.37;100.00
37202;BME280;37799;52.390;6.136;2022-08-20T06:55:33;101645.53;;;19.42;100.00
37202;BME280;37799;52.390;6.136;2022-08-20T06:58:01;101659.69;;;19.57;100.00
37202;BME280;37799;52.390;6.136;2022-08-20T07:00:27;101658.28;;;19.84;100.00
37202;BME280;37799;52.390;6.136;2022-08-20T07:02:53;101658.59;;;20.44;100.00
37202;BME280;37799;52.390;6.136;2022-08-20T07:05:19;101667.81;;;20.84;100.00
37202;BME280;37799;52.390;6.136;2022-08-20T07:07:48;101660.50;;;20.89;100.00
37202;BME280;37799;52.390;6.136;2022-08-20T07:10:16;101664.16;;;20.87;100.00
37202;BME280;37799;52.390;6.136;2022-08-20T07:12:42;101665.78;;;20.89;100.00
37202;BME280;37799;52.390;6.136;2022-08-20T07:15:10;101670.38;;;20.86;100.00
37202;BME280;37799;52.390;6.136;2022-08-20T07:17:36;101666.97;;;21.00;100.00
37202;BME280;37799;52.390;6.136;2022-08-20T07:20:06;101666.13;;;20.99;100.00
37202;BME280;37799;52.390;6.136;2022-08-20T07:22:32;101671.53;;;20.96;100.00
37202;BME280;37799;52.390;6.136;2022-08-20T07:25:03;101668.13;;;20.94;100.00
37202;BME280;37799;52.390;6.136;2022-08-20T07:27:29;101665.94;;;21.02;100.00
37202;BME280;37799;52.390;6.136;2022-08-20T07:29:55;101669.28;;;21.20;100.00
37202;BME280;37799;52.390;6.136;2022-08-20T07:32:39;101672.88;;;21.65;100.00
37202;BME280;37799;52.390;6.136;2022-08-20T07:35:10;101669.75;;;22.59;100.00
37202;BME280;37799;52.390;6.136;2022-08-20T07:37:38;101681.06;;;23.69;100.00
37202;BME280;37799;52.390;6.136;2022-08-20T07:40:05;101684.31;;;24.75;100.00
37202;BME280;37799;52.390;6.136;2022-08-20T07:42:31;101692.03;;;25.49;100.00
37202;BME280;37799;52.390;6.136;2022-08-20T07:44:56;101691.59;;;25.55;97.75
37202;BME280;37799;52.390;6.136;2022-08-20T07:47:22;101699.81;;;25.28;93.46
37202;BME280;37799;52.390;6.136;2022-08-20T07:49:47;101698.28;;;24.77;100.00
37202;BME280;37799;52.390;6.136;2022-08-20T07:52:12;101705.94;;;25.05;100.00
37202;BME280;37799;52.390;6.136;2022-08-20T07:54:38;101698.44;;;25.47;97.35
37202;BME280;37799;52.390;6.136;2022-08-20T07:57:04;101704.59;;;25.82;89.70
37202;BME280;37799;52.390;6.136;2022-08-20T07:59:30;101701.25;;;26.25;95.04
37202;BME280;37799;52.390;6.136;2022-08-20T08:01:55;101689.28;;;26.87;93.53
37202;BME280;37799;52.390;6.136;2022-08-20T08:04:20;101686.81;;;26.95;80.16
37202;BME280;37799;52.390;6.136;2022-08-20T08:06:49;101686.78;;;26.74;74.09
37202;BME280;37799;52.390;6.136;2022-08-20T08:09:15;101690.03;;;26.10;72.46
37202;BME280;37799;52.390;6.136;2022-08-20T08:11:44;101693.16;;;25.93;75.99
37202;BME280;37799;52.390;6.136;2022-08-20T08:14:16;101694.75;;;26.18;76.47
37202;BME280;37799;52.390;6.136;2022-08-20T08:16:44;101684.72;;;26.66;73.40
37202;BME280;37799;52.390;6.136;2022-08-20T08:19:10;101696.44;;;26.64;68.94
37202;BME280;37799;52.390;6.136;2022-08-20T08:21:38;101694.44;;;27.11;64.95
37202;BME280;37799;52.390;6.136;2022-08-20T08:24:05;101697.78;;;27.77;66.68
37202;BME280;37799;52.390;6.136;2022-08-20T08:26:31;101695.31;;;28.36;64.33
37202;BME280;37799;52.390;6.136;2022-08-20T08:28:56;101701.00;;;28.62;62.30
37202;BME280;37799;52.390;6.136;2022-08-20T08:31:25;101706.53;;;28.80;55.53
37202;BME280;37799;52.390;6.136;2022-08-20T08:33:50;101702.59;;;28.84;51.42
37202;BME280;37799;52.390;6.136;2022-08-20T08:36:16;101698.16;;;28.94;55.35
37202;BME280;37799;52.390;6.136;2022-08-20T08:38:43;101696.63;;;29.11;55.02
37202;BME280;37799;52.390;6.136;2022-08-20T08:41:20;101700.06;;;28.83;54.22
37202;BME280;37799;52.390;6.136;2022-08-20T08:43:51;101698.44;;;28.41;55.25
37202;BME280;37799;52.390;6.136;2022-08-20T08:46:20;101704.69;;;28.31;53.16
37202;BME280;37799;52.390;6.136;2022-08-20T08:48:49;101706.97;;;28.14;54.55
37202;BME280;37799;52.390;6.136;2022-08-20T08:51:23;101718.66;;;28.63;56.22
37202;BME280;37799;52.390;6.136;2022-08-20T08:53:52;101721.47;;;27.80;55.02
37202;BME280;37799;52.390;6.136;2022-08-20T08:56:20;101711.63;;;27.59;59.80
37202;BME280;37799;52.390;6.136;2022-08-20T08:58:47;101717.44;;;28.37;62.02
37202;BME280;37799;52.390;6.136;2022-08-20T09:01:21;101717.56;;;29.25;60.50
37202;BME280;37799;52.390;6.136;2022-08-20T09:03:49;101721.22;;;29.34;52.45
37202;BME280;37799;52.390;6.136;2022-08-20T09:06:18;101716.19;;;29.60;51.16
37202;BME280;37799;52.390;6.136;2022-08-20T09:08:48;101726.13;;;29.77;49.77
37202;BME280;37799;52.390;6.136;2022-08-20T09:11:17;101736.19;;;30.03;53.96
37202;BME280;37799;52.390;6.136;2022-08-20T09:13:42;101728.19;;;30.12;54.72
37202;BME280;37799;52.390;6.136;2022-08-20T09:16:09;101738.84;;;30.22;53.77
37202;BME280;37799;52.390;6.136;2022-08-20T09:18:35;101736.97;;;30.60;50.18
37202;BME280;37799;52.390;6.136;2022-08-20T09:21:00;101736.38;;;30.38;47.67
37202;BME280;37799;52.390;6.136;2022-08-20T09:23:26;101737.91;;;30.78;47.60
37202;BME280;37799;52.390;6.136;2022-08-20T09:25:51;101738.06;;;30.39;46.70
37202;BME280;37799;52.390;6.136;2022-08-20T09:28:16;101738.00;;;30.21;45.73
37202;BME280;37799;52.390;6.136;2022-08-20T09:30:42;101728.91;;;29.85;47.07
37202;BME280;37799;52.390;6.136;2022-08-20T09:33:07;101739.06;;;29.53;48.75
37202;BME280;37799;52.390;6.136;2022-08-20T09:35:32;101730.91;;;29.45;46.60
37202;BME280;37799;52.390;6.136;2022-08-20T09:37:58;101737.50;;;28.71;47.45
37202;BME280;37799;52.390;6.136;2022-08-20T09:40:24;101731.84;;;29.15;49.58
37202;BME280;37799;52.390;6.136;2022-08-20T09:42:49;101736.66;;;28.31;47.15
37202;BME280;37799;52.390;6.136;2022-08-20T09:45:15;101738.66;;;28.17;48.26
37202;BME280;37799;52.390;6.136;2022-08-20T09:47:41;101734.50;;;28.55;44.45
37202;BME280;37799;52.390;6.136;2022-08-20T09:50:07;101733.81;;;28.02;44.08
37202;BME280;37799;52.390;6.136;2022-08-20T09:52:35;101730.63;;;28.29;46.14
37202;BME280;37799;52.390;6.136;2022-08-20T09:55:07;101741.94;;;28.92;47.24
37202;BME280;37799;52.390;6.136;2022-08-20T09:57:36;101736.75;;;29.00;45.56
37202;BME280;37799;52.390;6.136;2022-08-20T10:00:04;101744.69;;;29.50;47.86
37202;BME280;37799;52.390;6.136;2022-08-20T10:02:32;101734.25;;;29.08;42.77
37202;BME280;37799;52.390;6.136;2022-08-20T10:04:57;101738.28;;;28.53;45.63
37202;BME280;37799;52.390;6.136;2022-08-20T10:07:22;101732.97;;;28.01;45.79
37202;BME280;37799;52.390;6.136;2022-08-20T10:09:48;101735.72;;;28.51;47.65
37202;BME280;37799;52.390;6.136;2022-08-20T10:12:13;101735.19;;;28.88;46.95
37202;BME280;37799;52.390;6.136;2022-08-20T10:14:39;101735.88;;;28.90;42.09
37202;BME280;37799;52.390;6.136;2022-08-20T10:17:04;101732.59;;;29.36;44.37
37202;BME280;37799;52.390;6.136;2022-08-20T10:19:30;101738.06;;;28.65;39.04
37202;BME280;37799;52.390;6.136;2022-08-20T10:21:56;101730.91;;;28.75;41.84
37202;BME280;37799;52.390;6.136;2022-08-20T10:24:22;101738.16;;;28.54;45.21
37202;BME280;37799;52.390;6.136;2022-08-20T10:26:48;101738.66;;;28.78;41.24
37202;BME280;37799;52.390;6.136;2022-08-20T10:29:14;101731.91;;;29.44;41.19
37202;BME280;37799;52.390;6.136;2022-08-20T10:31:40;101728.22;;;29.25;43.12
37202;BME280;37799;52.390;6.136;2022-08-20T10:34:05;101727.50;;;29.81;38.07
37202;BME280;37799;52.390;6.136;2022-08-20T10:36:31;101723.75;;;29.55;41.11
37202;BME280;37799;52.390;6.136;2022-08-20T10:38:56;101724.72;;;29.44;41.16
37202;BME280;37799;52.390;6.136;2022-08-20T10:41:21;101723.59;;;29.18;42.33
37202;BME280;37799;52.390;6.136;2022-08-20T10:43:47;101723.03;;;29.24;43.34
37202;BME280;37799;52.390;6.136;2022-08-20T10:46:12;101725.81;;;29.42;42.71
37202;BME280;37799;52.390;6.136;2022-08-20T10:48:38;101727.66;;;29.12;40.20
37202;BME280;37799;52.390;6.136;2022-08-20T10:51:04;101724.88;;;28.73;42.41
37202;BME280;37799;52.390;6.136;2022-08-20T10:53:29;101723.94;;;27.72;46.23
37202;BME280;37799;52.390;6.136;2022-08-20T10:55:55;101727.31;;;27.95;44.52
37202;BME280;37799;52.390;6.136;2022-08-20T10:58:21;101722.88;;;28.56;46.33
37202;BME280;37799;52.390;6.136;2022-08-20T11:00:47;101719.78;;;29.01;45.15
37202;BME280;37799;52.390;6.136;2022-08-20T11:03:12;101717.13;;;29.78;43.72
37202;BME280;37799;52.390;6.136;2022-08-20T11:05:37;101727.19;;;30.04;43.22
37202;BME280;37799;52.390;6.136;2022-08-20T11:08:03;101726.72;;;30.28;40.00
37202;BME280;37799;52.390;6.136;2022-08-20T11:10:30;101725.38;;;30.96;39.97
37202;BME280;37799;52.390;6.136;2022-08-20T11:12:58;101730.94;;;31.13;38.92
37202;BME280;37799;52.390;6.136;2022-08-20T11:15:23;101724.91;;;30.56;36.91
37202;BME280;37799;52.390;6.136;2022-08-20T11:17:49;101734.72;;;30.92;40.76
37202;BME280;37799;52.390;6.136;2022-08-20T11:20:17;101745.56;;;30.91;40.76
37202;BME280;37799;52.390;6.136;2022-08-20T11:22:43;101738.88;;;30.49;38.76
37202;BME280;37799;52.390;6.136;2022-08-20T11:25:09;101740.13;;;30.45;42.73
37202;BME280;37799;52.390;6.136;2022-08-20T11:27:40;101736.59;;;30.08;41.97
37202;BME280;37799;52.390;6.136;2022-08-20T11:30:10;101735.41;;;29.73;41.73
37202;BME280;37799;52.390;6.136;2022-08-20T11:32:36;101728.03;;;30.14;39.97
37202;BME280;37799;52.390;6.136;2022-08-20T11:35:02;101732.91;;;30.65;40.52
37202;BME280;37799;52.390;6.136;2022-08-20T11:37:28;101736.91;;;31.42;40.00
37202;BME280;37799;52.390;6.136;2022-08-20T11:39:53;101742.47;;;30.68;39.82
37202;BME280;37799;52.390;6.136;2022-08-20T11:42:18;101738.31;;;29.80;41.30
37202;BME280;37799;52.390;6.136;2022-08-20T11:44:44;101732.97;;;28.62;44.26
37202;BME280;37799;52.390;6.136;2022-08-20T11:47:19;101738.66;;;27.97;47.36
37202;BME280;37799;52.390;6.136;2022-08-20T11:49:45;101733.88;;;27.58;48.37
37202;BME280;37799;52.390;6.136;2022-08-20T11:52:10;101734.91;;;27.46;47.21
37202;BME280;37799;52.390;6.136;2022-08-20T11:54:35;101740.47;;;27.96;46.86
37202;BME280;37799;52.390;6.136;2022-08-20T11:57:04;101748.41;;;28.07;43.94
37202;BME280;37799;52.390;6.136;2022-08-20T11:59:29;101746.63;;;28.17;43.47
37202;BME280;37799;52.390;6.136;2022-08-20T12:01:55;101741.19;;;27.98;44.49
37202;BME280;37799;52.390;6.136;2022-08-20T12:04:21;101740.47;;;27.22;42.85
37202;BME280;37799;52.390;6.136;2022-08-20T12:06:47;101746.41;;;26.81;47.47
37202;BME280;37799;52.390;6.136;2022-08-20T12:09:12;101742.81;;;26.60;46.01
37202;BME280;37799;52.390;6.136;2022-08-20T12:11:38;101743.06;;;26.45;48.18
37202;BME280;37799;52.390;6.136;2022-08-20T12:14:03;101740.97;;;26.04;47.33
37202;BME280;37799;52.390;6.136;2022-08-20T12:16:28;101729.16;;;26.42;48.74
37202;BME280;37799;52.390;6.136;2022-08-20T12:18:54;101729.00;;;26.99;43.85
37202;BME280;37799;52.390;6.136;2022-08-20T12:21:19;101727.47;;;26.63;42.70
37202;BME280;37799;52.390;6.136;2022-08-20T12:23:44;101730.97;;;26.64;44.96
37202;BME280;37799;52.390;6.136;2022-08-20T12:26:10;101726.94;;;26.92;45.61
37202;BME280;37799;52.390;6.136;2022-08-20T12:28:36;101716.63;;;27.53;42.33
37202;BME280;37799;52.390;6.136;2022-08-20T12:31:01;101735.13;;;28.38;44.81
37202;BME280;37799;52.390;6.136;2022-08-20T12:33:26;101736.13;;;28.87;40.16
37202;BME280;37799;52.390;6.136;2022-08-20T12:35:51;101735.25;;;28.76;38.80
37202;BME280;37799;52.390;6.136;2022-08-20T12:38:17;101733.09;;;29.01;38.58
37202;BME280;37799;52.390;6.136;2022-08-20T12:40:43;101734.25;;;29.37;38.68
37202;BME280;37799;52.390;6.136;2022-08-20T12:43:08;101734.41;;;29.26;37.70
37202;BME280;37799;52.390;6.136;2022-08-20T12:45:34;101732.34;;;29.49;40.40
37202;BME280;37799;52.390;6.136;2022-08-20T12:48:11;101724.19;;;29.60;37.62
37202;BME280;37799;52.390;6.136;2022-08-20T12:50:39;101725.28;;;29.67;36.45
37202;BME280;37799;52.390;6.136;2022-08-20T12:53:05;101730.06;;;29.34;37.76